createdAt,value
2022-11-10T00:03:28.407Z,92.55
2022-11-10T00:08:48.581Z,92.94
2022-11-10T00:14:29.017Z,93.70
2022-11-10T00:19:49.224Z,93.43
2022-11-10T00:25:09.458Z,92.90
2022-11-10T00:30:29.844Z,93.40
2022-11-10T00:35:49.799Z,94.23
2022-11-10T00:41:10.034Z,95.44
2022-11-10T00:46:30.026Z,96.23
2022-11-10T00:51:50.124Z,96.25
2022-11-10T00:57:11.125Z,96.46
2022-11-10T01:02:31.262Z,96.64
2022-11-10T01:08:02.877Z,97.01
2022-11-10T01:13:29.787Z,97.15
2022-11-10T01:18:55.423Z,96.78
2022-11-10T01:24:19.349Z,97.17
2022-11-10T01:29:39.502Z,97.57
2022-11-10T01:34:59.873Z,97.78
2022-11-10T01:40:20.878Z,96.28
2022-11-10T01:45:41.469Z,95.93
2022-11-10T01:51:12.073Z,96.47
2022-11-10T01:56:36.213Z,97.11
2022-11-10T02:02:07.113Z,96.75
2022-11-10T02:07:28.091Z,96.84
2022-11-10T02:12:50.230Z,95.92
2022-11-10T02:18:10.431Z,95.22
2022-11-10T02:23:30.721Z,94.90
2022-11-10T02:28:50.953Z,95.09
2022-11-10T02:34:14.106Z,96.34
2022-11-10T02:39:34.503Z,96.71
2022-11-10T02:44:55.792Z,96.67
2022-11-10T02:50:21.013Z,95.83
2022-11-10T02:55:47.570Z,95.32
2022-11-10T03:01:20.210Z,94.63
2022-11-10T03:06:40.695Z,94.19
2022-11-10T03:12:01.064Z,93.33
2022-11-10T03:17:21.410Z,93.46
2022-11-10T03:22:41.412Z,94.82
2022-11-10T03:28:01.527Z,95.17
2022-11-10T03:33:22.193Z,94.72
2022-11-10T03:38:42.851Z,95.33
2022-11-10T03:44:02.940Z,95.22
2022-11-10T03:49:23.481Z,95.85
2022-11-10T03:54:43.511Z,95.99
2022-11-10T04:00:04.774Z,97.00
2022-11-10T04:05:48.123Z,97.37
2022-11-10T04:11:10.695Z,97.08
2022-11-10T04:16:30.773Z,96.05
2022-11-10T04:21:50.951Z,94.90
2022-11-10T04:27:11.354Z,93.92
2022-11-10T04:32:31.494Z,93.06
2022-11-10T04:37:51.865Z,93.35
2022-11-10T04:43:11.977Z,92.82
2022-11-10T04:48:33.225Z,93.27
2022-11-10T04:53:53.775Z,94.53
2022-11-10T04:59:14.016Z,95.49
2022-11-10T05:04:34.052Z,95.44
2022-11-10T05:09:54.251Z,96.51
2022-11-10T05:15:14.755Z,96.20
2022-11-10T05:20:35.166Z,97.49
2022-11-10T05:25:55.585Z,98.66
2022-11-10T05:31:16.094Z,100.00
2022-11-10T05:36:36.161Z,100.00
2022-11-10T05:41:56.195Z,100.00
2022-11-10T05:47:16.242Z,100.00
2022-11-10T05:52:43.449Z,100.00
2022-11-10T05:58:06.837Z,100.00
2022-11-10T06:03:27.622Z,100.00
2022-11-10T06:08:48.755Z,100.00
2022-11-10T06:14:08.721Z,100.00
2022-11-10T06:19:29.052Z,100.00
2022-11-10T06:24:49.136Z,100.00
2022-11-10T06:30:10.018Z,100.00
2022-11-10T06:35:30.878Z,100.00
2022-11-10T06:40:50.828Z,100.00
2022-11-10T06:46:10.914Z,100.00
2022-11-10T06:51:31.303Z,100.00
2022-11-10T06:56:51.673Z,100.00
2022-11-10T07:02:15.413Z,100.00
2022-11-10T07:07:35.526Z,100.00
2022-11-10T07:12:56.383Z,100.00
2022-11-10T07:18:16.873Z,100.00
2022-11-10T07:23:37.722Z,100.00
2022-11-10T07:28:58.164Z,100.00
2022-11-10T07:34:18.359Z,100.00
2022-11-10T07:39:38.425Z,100.00
2022-11-10T07:44:58.411Z,100.00
2022-11-10T07:50:18.996Z,100.00
2022-11-10T07:55:46.128Z,100.00
2022-11-10T08:01:29.647Z,100.00
2022-11-10T08:06:50.212Z,100.00
2022-11-10T08:12:10.443Z,100.00
2022-11-10T08:17:30.639Z,100.00
2022-11-10T08:22:58.782Z,100.00
2022-11-10T08:28:20.015Z,100.00
2022-11-10T08:33:40.293Z,100.00
2022-11-10T08:39:08.748Z,100.00
2022-11-10T08:44:44.336Z,100.00
2022-11-10T08:50:09.196Z,100.00
2022-11-10T08:55:36.987Z,100.00
2022-11-10T09:00:57.312Z,100.00
2022-11-10T09:06:18.403Z,100.00
2022-11-10T09:11:39.603Z,100.00
2022-11-10T09:17:00.092Z,100.00
2022-11-10T09:22:20.449Z,100.00
2022-11-10T09:27:41.033Z,100.00
2022-11-10T09:33:01.398Z,100.00
2022-11-10T09:38:21.944Z,100.00
2022-11-10T09:44:02.097Z,100.00
2022-11-10T09:49:25.111Z,100.00
2022-11-10T09:54:51.538Z,100.00
2022-11-10T10:00:18.020Z,100.00
2022-11-10T10:05:47.437Z,99.53
2022-11-10T10:11:33.553Z,99.77
2022-11-10T10:17:08.719Z,99.23
2022-11-10T10:22:55.610Z,99.49
2022-11-10T10:28:19.054Z,99.92
2022-11-10T10:33:39.841Z,100.00
2022-11-10T10:39:05.547Z,100.00
2022-11-10T10:44:26.064Z,100.00
2022-11-10T10:49:49.731Z,100.00
2022-11-10T10:55:13.149Z,100.00
2022-11-10T11:00:43.344Z,100.00
2022-11-10T11:06:17.627Z,100.00
2022-11-10T11:11:41.239Z,99.96
2022-11-10T11:17:19.496Z,100.00
2022-11-10T11:22:56.888Z,100.00
2022-11-10T11:28:20.761Z,100.00
2022-11-10T11:34:23.441Z,100.00
2022-11-10T11:40:38.326Z,100.00
2022-11-10T11:46:29.198Z,100.00
2022-11-10T11:52:14.661Z,100.00
2022-11-10T11:58:15.999Z,100.00
2022-11-10T12:03:44.035Z,100.00
2022-11-10T12:09:27.213Z,100.00
2022-11-10T12:15:43.425Z,100.00
2022-11-10T12:21:24.243Z,100.00
2022-11-10T12:26:45.400Z,100.00
2022-11-10T12:32:17.534Z,100.00
2022-11-10T12:37:44.423Z,100.00
2022-11-10T12:43:40.858Z,100.00
2022-11-10T12:49:17.558Z,100.00
2022-11-10T12:54:41.290Z,100.00
2022-11-10T13:00:32.423Z,100.00
2022-11-10T13:05:59.346Z,100.00
2022-11-10T13:11:31.220Z,100.00
2022-11-10T13:16:54.486Z,100.00
2022-11-10T13:22:36.996Z,100.00
2022-11-10T13:27:57.160Z,100.00
2022-11-10T13:33:24.689Z,100.00
2022-11-10T13:38:45.964Z,100.00
2022-11-10T13:44:21.785Z,100.00
2022-11-10T13:49:54.308Z,100.00
2022-11-10T13:55:27.794Z,100.00
2022-11-10T14:01:12.131Z,100.00
2022-11-10T14:06:48.477Z,100.00
2022-11-10T14:12:25.820Z,100.00
2022-11-10T14:17:58.197Z,100.00
2022-11-10T14:23:32.039Z,98.85
2022-11-10T14:28:55.198Z,98.00
2022-11-10T14:34:25.343Z,97.75
2022-11-10T14:39:46.513Z,96.80
2022-11-10T14:45:29.720Z,96.07
2022-11-10T14:50:55.601Z,96.20
2022-11-10T14:56:36.838Z,95.24
2022-11-10T15:02:00.595Z,94.68
2022-11-10T15:07:22.038Z,94.27
2022-11-10T15:13:05.555Z,94.71
2022-11-10T15:18:29.420Z,94.41
2022-11-10T15:24:03.372Z,94.46
2022-11-10T15:29:24.700Z,93.82
2022-11-10T15:34:45.732Z,93.47
2022-11-10T15:40:27.776Z,92.94
2022-11-10T15:45:53.149Z,91.96
2022-11-10T15:51:15.744Z,92.17
2022-11-10T15:56:38.677Z,91.24
2022-11-10T16:01:59.520Z,91.53
2022-11-10T16:07:21.408Z,91.04
2022-11-10T16:12:42.018Z,91.18
2022-11-10T16:18:02.674Z,91.07
2022-11-10T16:23:25.778Z,91.26
2022-11-10T16:28:47.844Z,90.76
2022-11-10T16:34:13.843Z,90.86
2022-11-10T16:39:45.643Z,90.76
2022-11-10T16:45:06.550Z,90.48
2022-11-10T16:50:32.071Z,90.36
2022-11-10T16:55:52.356Z,90.24
2022-11-10T17:01:34.161Z,90.53
2022-11-10T17:06:55.742Z,89.82
2022-11-10T17:12:16.240Z,89.84
2022-11-10T17:17:37.221Z,90.07
2022-11-10T17:22:57.953Z,89.95
2022-11-10T17:28:18.846Z,90.09
2022-11-10T17:33:40.254Z,90.30
2022-11-10T17:39:00.926Z,90.16
2022-11-10T17:44:21.181Z,90.36
2022-11-10T17:49:52.295Z,90.97
2022-11-10T17:55:21.675Z,91.73
2022-11-10T18:00:43.024Z,91.09
2022-11-10T18:06:06.449Z,92.03
2022-11-10T18:11:27.094Z,92.55
2022-11-10T18:16:47.490Z,92.86
2022-11-10T18:22:07.737Z,93.30
2022-11-10T18:27:29.141Z,93.18
2022-11-10T18:32:49.224Z,94.09
2022-11-10T18:38:15.483Z,94.27
2022-11-10T18:43:35.594Z,94.31
2022-11-10T18:48:56.214Z,94.29
2022-11-10T18:54:16.763Z,94.36
2022-11-10T18:59:40.211Z,94.69
2022-11-10T19:05:02.161Z,94.97
2022-11-10T19:10:22.673Z,95.17
2022-11-10T19:15:43.106Z,95.79
2022-11-10T19:21:10.998Z,95.87
2022-11-10T19:26:33.349Z,96.48
2022-11-10T19:31:53.691Z,96.32
2022-11-10T19:37:15.083Z,96.75
2022-11-10T19:42:35.596Z,96.85
2022-11-10T19:48:15.040Z,96.21
2022-11-10T19:54:05.782Z,96.35
2022-11-10T19:59:26.843Z,96.03
2022-11-10T20:05:08.021Z,95.69
2022-11-10T20:10:30.605Z,95.73
2022-11-10T20:16:22.667Z,95.48
2022-11-10T20:22:12.818Z,95.11
2022-11-10T20:27:34.617Z,94.51
2022-11-10T20:32:59.728Z,94.44
2022-11-10T20:38:20.035Z,94.09
2022-11-10T20:44:02.461Z,93.37
2022-11-10T20:49:31.937Z,93.35
2022-11-10T20:54:55.456Z,93.33
2022-11-10T21:00:29.409Z,93.04
2022-11-10T21:05:57.662Z,93.27
2022-11-10T21:11:40.536Z,93.70
2022-11-10T21:17:02.573Z,93.43
2022-11-10T21:22:30.110Z,93.35
2022-11-10T21:27:53.063Z,94.10
2022-11-10T21:33:13.777Z,93.93
2022-11-10T21:38:36.913Z,94.46
2022-11-10T21:43:59.440Z,95.43
2022-11-10T21:49:19.449Z,96.17
2022-11-10T21:54:40.103Z,96.31
2022-11-10T22:00:00.519Z,97.05
2022-11-10T22:05:20.684Z,96.99
2022-11-10T22:10:59.721Z,97.22
2022-11-10T22:16:44.279Z,97.30
2022-11-10T22:22:04.648Z,97.78
2022-11-10T22:27:24.830Z,97.95
2022-11-10T22:32:45.087Z,98.56
2022-11-10T22:38:06.534Z,97.94
2022-11-10T22:43:45.727Z,98.20
2022-11-10T22:49:09.667Z,98.22
2022-11-10T22:54:29.985Z,98.38
2022-11-10T22:59:50.432Z,98.54
2022-11-10T23:05:10.890Z,98.43
2022-11-10T23:10:31.297Z,98.35
2022-11-10T23:15:54.189Z,98.23
2022-11-10T23:21:16.687Z,98.13
2022-11-10T23:26:36.781Z,97.71
2022-11-10T23:31:57.276Z,97.54
2022-11-10T23:37:17.576Z,97.68
2022-11-10T23:42:37.692Z,97.11
2022-11-10T23:47:57.803Z,96.82
2022-11-10T23:53:19.219Z,97.13
2022-11-10T23:58:39.853Z,97.09
